Time;durP1;ratioP1;P1;durP2;ratioP2;P2;SDS_P1;SDS_P2;PMS_P1;PMS_P2;Temp;Humidity;BMP_temperature;BMP_pressure;BME280_temperature;BME280_humidity;BME280_pressure;Samples;Min_cycle;Max_cycle;Signal;HPM_P1;HPM_P2
2022/11/22 00:00:46;;;;;;;4.70;2.80;;;;;;;-1.97;85.49;97799.16;101889;1299;75232;-22
2022/11/22 00:03:13;;;;;;;2.50;2.20;;;;;;;-2.04;85.72;97799.36;102096;1299;75581;-22
2022/11/22 00:05:41;;;;;;;4.10;3.20;;;;;;;-2.16;85.93;97801.16;102178;1301;75208;-22
2022/11/22 00:08:08;;;;;;;3.20;2.80;;;;;;;-2.40;87.23;97798.07;101987;1302;62565;-22
2022/11/22 00:10:36;;;;;;;5.20;3.70;;;;;;;-2.04;86.26;97793.76;101956;1299;61527;-22
2022/11/22 00:13:03;;;;;;;3.60;2.60;;;;;;;-1.91;85.70;97795.14;102167;1294;75294;-22
2022/11/22 00:15:31;;;;;;;4.00;2.70;;;;;;;-1.76;84.52;97795.42;102221;1296;76673;-22
2022/11/22 00:17:58;;;;;;;4.00;2.70;;;;;;;-1.87;85.11;97805.67;101933;1300;73910;-22
2022/11/22 00:20:26;;;;;;;4.30;3.20;;;;;;;-2.09;85.45;97812.02;101922;1291;61140;-22
2022/11/22 00:22:55;;;;;;;3.00;2.50;;;;;;;-2.28;86.77;97815.98;102204;1295;62953;-22
2022/11/22 00:25:23;;;;;;;2.80;2.30;;;;;;;-2.40;87.38;97812.87;101910;1299;76154;-22
2022/11/22 00:27:52;;;;;;;3.00;2.20;;;;;;;-1.82;86.06;97818.17;102256;1294;75808;-22
2022/11/22 00:30:20;;;;;;;4.20;2.90;;;;;;;-1.76;85.02;97815.88;102131;1299;75402;-22
2022/11/22 00:32:47;;;;;;;3.50;2.40;;;;;;;-1.73;84.48;97817.90;102310;1297;61119;-22
2022/11/22 00:35:15;;;;;;;3.90;3.10;;;;;;;-1.88;84.51;97823.56;102076;1290;61197;-22
2022/11/22 00:37:42;;;;;;;4.40;2.40;;;;;;;-2.11;85.33;97820.27;102060;1300;76402;-22
2022/11/22 00:40:10;;;;;;;3.40;2.90;;;;;;;-2.25;86.15;97819.61;102240;1297;75633;-22
2022/11/22 00:42:38;;;;;;;3.80;2.80;;;;;;;-2.52;87.66;97819.17;102298;1302;73996;-22
2022/11/22 00:45:06;;;;;;;2.50;1.80;;;;;;;-2.12;86.89;97817.45;102146;1297;61139;-22
2022/11/22 00:47:35;;;;;;;3.50;3.00;;;;;;;-1.76;85.14;97813.94;101932;1303;62868;-22
2022/11/22 00:50:03;;;;;;;4.10;3.20;;;;;;;-2.01;85.21;97812.83;101900;1305;76418;-22
2022/11/22 00:52:31;;;;;;;4.30;3.10;;;;;;;-2.30;86.16;97814.39;101987;1304;76547;-21
2022/11/22 00:54:58;;;;;;;4.40;3.10;;;;;;;-2.30;86.56;97819.48;102186;1300;75357;-22
2022/11/22 00:57:26;;;;;;;1.80;1.40;;;;;;;-2.33;86.32;97825.45;102163;1302;61181;-22
2022/11/22 00:59:53;;;;;;;1.80;1.60;;;;;;;-2.41;86.93;97828.70;101991;1299;61868;-21
2022/11/22 01:02:21;;;;;;;3.00;2.30;;;;;;;-2.00;85.90;97826.74;101902;1302;76289;-21
2022/11/22 01:04:48;;;;;;;4.20;3.10;;;;;;;-1.63;83.90;97825.88;102249;1301;76475;-21
2022/11/22 01:07:16;;;;;;;3.40;2.50;;;;;;;-1.73;83.35;97834.38;102244;1302;75056;-21
2022/11/22 01:09:43;;;;;;;3.80;2.80;;;;;;;-1.86;83.72;97838.14;102252;1302;61127;-21
2022/11/22 01:12:11;;;;;;;4.50;3.10;;;;;;;-2.01;84.01;97840.38;102245;1297;61132;-21
2022/11/22 01:14:38;;;;;;;5.90;3.50;;;;;;;-2.25;85.08;97838.85;102084;1305;76502;-21
2022/11/22 01:17:06;;;;;;;3.50;2.40;;;;;;;-2.44;86.47;97836.14;102242;1300;76514;-22
2022/11/22 01:19:33;;;;;;;2.40;1.90;;;;;;;-1.97;85.33;97840.20;102148;1295;75229;-21
2022/11/22 01:22:00;;;;;;;4.10;2.80;;;;;;;-1.64;83.71;97840.08;102274;1302;61846;-22
2022/11/22 01:24:28;;;;;;;4.30;2.90;;;;;;;-1.60;83.24;97845.80;102260;1302;61659;-21
2022/11/22 01:26:55;;;;;;;4.70;3.20;;;;;;;-1.92;84.06;97841.66;101836;1304;74903;-21
2022/11/22 01:29:25;;;;;;;4.60;3.00;;;;;;;-2.17;85.06;97840.32;102157;1292;75718;-21
2022/11/22 01:31:53;;;;;;;5.60;3.10;;;;;;;-2.28;86.06;97834.56;102331;1302;75241;-21
2022/11/22 01:34:20;;;;;;;4.40;2.50;;;;;;;-2.32;86.55;97841.52;102130;1301;61477;-21
2022/11/22 01:36:48;;;;;;;3.30;2.40;;;;;;;-2.00;85.87;97853.25;101990;1302;62904;-21
2022/11/22 01:39:15;;;;;;;4.20;2.80;;;;;;;-1.72;84.25;97853.75;101961;1302;75377;-21
2022/11/22 01:41:43;;;;;;;5.20;3.00;;;;;;;-1.87;84.45;97858.55;102054;1302;76416;-21
2022/11/22 01:44:41;;;;;;;4.50;3.20;;;;;;;-1.98;84.52;97856.74;102047;1291;75397;-21
2022/11/22 01:47:19;;;;;;;4.50;3.20;;;;;;;-2.13;85.27;97859.86;101852;1301;61196;-21
2022/11/22 01:49:54;;;;;;;4.70;2.50;;;;;;;-2.30;86.22;97860.13;101873;1302;61158;-21
2022/11/22 01:52:24;;;;;;;3.40;1.80;;;;;;;-2.00;85.93;97866.52;101859;1303;76615;-21
2022/11/22 01:55:07;;;;;;;2.20;1.90;;;;;;;-1.51;83.92;97864.59;101915;1304;76770;-22
2022/11/22 01:57:36;;;;;;;7.50;2.70;;;;;;;-1.56;82.67;97858.77;101952;1295;75192;-21
2022/11/22 02:00:07;;;;;;;4.50;2.60;;;;;;;-1.73;83.22;97850.73;101915;1305;61303;-21
2022/11/22 02:02:40;;;;;;;3.70;2.60;;;;;;;-1.87;83.52;97852.77;101889;1304;61206;-21
2022/11/22 02:05:10;;;;;;;3.50;2.70;;;;;;;-2.12;84.77;97850.27;102065;1300;74142;-22
2022/11/22 02:08:02;;;;;;;5.50;3.40;;;;;;;-2.33;85.69;97846.32;101880;1302;76878;-21
2022/11/22 02:10:30;;;;;;;4.20;3.20;;;;;;;-1.95;85.53;97844.19;101864;1302;75792;-21
2022/11/22 02:12:58;;;;;;;5.80;3.30;;;;;;;-1.48;83.66;97839.42;101854;1303;62932;-21
2022/11/22 02:15:25;;;;;;;4.40;3.60;;;;;;;-1.59;82.97;97844.43;101939;1299;61830;-22
2022/11/22 02:17:56;;;;;;;5.40;3.80;;;;;;;-1.79;83.79;97846.08;101925;1295;74193;-21
2022/11/22 02:20:24;;;;;;;6.90;3.90;;;;;;;-2.10;85.08;97843.55;101772;1305;76591;-21
2022/11/22 02:23:05;;;;;;;4.10;3.00;;;;;;;-2.27;86.40;97842.17;101842;1294;75024;-21
2022/11/22 02:25:36;;;;;;;5.70;3.50;;;;;;;-2.27;86.73;97843.17;101931;1302;63808;-21
2022/11/22 02:28:07;;;;;;;4.90;3.40;;;;;;;-1.85;86.19;97843.52;102056;1296;61571;-22
2022/11/22 02:30:35;;;;;;;5.70;4.20;;;;;;;-1.46;84.32;97841.36;101918;1303;76486;-21
2022/11/22 02:33:04;;;;;;;6.60;4.90;;;;;;;-1.78;84.76;97844.54;101920;1304;76848;-21
2022/11/22 02:35:31;;;;;;;8.20;4.20;;;;;;;-1.97;85.68;97839.33;101990;1297;74299;-21
2022/11/22 02:38:00;;;;;;;6.50;4.50;;;;;;;-2.13;85.92;97842.17;102109;1300;61999;-21
2022/11/22 02:40:30;;;;;;;8.10;5.60;;;;;;;-2.31;86.85;97844.36;101935;1298;62820;-21
2022/11/22 02:43:01;;;;;;;6.00;4.20;;;;;;;-2.45;87.40;97845.88;101938;1304;74272;-21
2022/11/22 02:45:28;;;;;;;7.60;4.60;;;;;;;-1.76;85.40;97841.52;101947;1302;76732;-21
2022/11/22 02:48:07;;;;;;;5.10;3.90;;;;;;;-1.63;83.90;97845.81;101899;1302;73906;-21
2022/11/22 02:50:34;;;;;;;7.60;4.80;;;;;;;-1.72;83.73;97843.73;101903;1304;61157;-21
2022/11/22 02:53:02;;;;;;;5.60;3.90;;;;;;;-1.85;84.00;97849.83;101993;1302;61071;-21
2022/11/22 02:55:30;;;;;;;5.40;4.10;;;;;;;-2.12;84.83;97848.22;102060;1300;76257;-21
2022/11/22 02:57:57;;;;;;;8.70;5.80;;;;;;;-2.21;85.30;97842.39;102138;1293;76614;-21
2022/11/22 03:00:25;;;;;;;4.20;3.10;;;;;;;-2.34;86.41;97847.08;101894;1304;74938;-21
2022/11/22 03:02:53;;;;;;;5.30;3.80;;;;;;;-1.80;84.96;97842.70;102078;1302;62265;-21
2022/11/22 03:05:20;;;;;;;4.90;3.80;;;;;;;-1.55;83.76;97842.14;102144;1302;62859;-21
2022/11/22 03:07:49;;;;;;;6.50;4.50;;;;;;;-1.61;83.10;97845.90;101938;1300;76428;-22
2022/11/22 03:10:17;;;;;;;7.40;4.80;;;;;;;-1.83;84.06;97846.95;102107;1295;75639;-21
2022/11/22 03:12:45;;;;;;;6.50;4.60;;;;;;;-2.08;85.18;97849.55;102281;1300;74964;-21
2022/11/22 03:15:12;;;;;;;8.00;5.10;;;;;;;-2.32;86.51;97848.02;102013;1301;62119;-21
2022/11/22 03:17:46;;;;;;;6.20;4.10;;;;;;;-2.21;87.16;97847.82;102026;1302;62857;-21
2022/11/22 03:20:13;;;;;;;6.90;4.00;;;;;;;-1.59;85.27;97839.30;102131;1305;76138;-21
2022/11/22 03:22:41;;;;;;;7.10;4.40;;;;;;;-1.47;83.97;97831.23;102020;1301;76615;-21
2022/11/22 03:25:08;;;;;;;8.80;5.30;;;;;;;-1.51;83.37;97834.67;102036;1302;75150;-21
2022/11/22 03:27:36;;;;;;;5.80;3.70;;;;;;;-1.74;84.27;97834.80;102070;1302;61025;-21
2022/11/22 03:30:04;;;;;;;9.50;5.40;;;;;;;-1.99;85.49;97834.86;102245;1300;61732;-21
2022/11/22 03:32:32;;;;;;;6.70;4.70;;;;;;;-2.16;86.75;97835.48;101997;1305;76562;-21
2022/11/22 03:34:59;;;;;;;6.10;3.80;;;;;;;-1.80;86.16;97832.84;101964;1300;76699;-21
2022/11/22 03:37:27;;;;;;;7.30;4.40;;;;;;;-1.48;84.83;97834.14;101935;1302;74254;-21
2022/11/22 03:39:54;;;;;;;7.40;4.20;;;;;;;-1.41;83.98;97841.27;102199;1295;61130;-21
2022/11/22 03:42:22;;;;;;;5.70;4.00;;;;;;;-1.43;83.71;97849.90;101933;1302;61881;-21
2022/11/22 03:44:49;;;;;;;6.20;3.80;;;;;;;-1.62;84.57;97855.63;102210;1298;76133;-21
2022/11/22 03:47:17;;;;;;;6.80;3.80;;;;;;;-1.75;85.01;97861.73;101915;1301;76549;-21
2022/11/22 03:49:44;;;;;;;3.50;2.60;;;;;;;-1.57;85.18;97862.70;102188;1302;75340;-21
2022/11/22 03:52:12;;;;;;;4.90;3.00;;;;;;;-0.98;83.45;97869.70;102253;1294;62716;-21
2022/11/22 03:54:39;;;;;;;5.10;3.30;;;;;;;-0.84;82.63;97874.77;102191;1291;61770;-21
2022/11/22 03:57:08;;;;;;;7.00;3.50;;;;;;;-1.02;82.91;97869.07;101941;1304;74328;-21
2022/11/22 03:59:35;;;;;;;7.00;4.20;;;;;;;-1.25;83.61;97871.30;102125;1301;76749;-22
2022/11/22 04:02:03;;;;;;;6.90;5.30;;;;;;;-1.49;84.84;97875.43;101992;1299;73017;-21
2022/11/22 04:04:30;;;;;;;6.40;4.20;;;;;;;-1.76;86.07;97865.67;102192;1302;61573;-21
2022/11/22 04:06:58;;;;;;;4.80;3.50;;;;;;;-1.69;86.87;97862.94;101938;1301;61794;-21
2022/11/22 04:09:25;;;;;;;7.00;3.90;;;;;;;-1.09;85.41;97855.98;101886;1300;75104;-21
2022/11/22 04:11:53;;;;;;;8.80;4.30;;;;;;;-0.86;84.11;97860.56;102069;1296;74991;-21
2022/11/22 04:17:11;;;;;;;6.60;4.20;;;;;;;-1.08;84.10;97868.34;101897;1302;61930;-21
2022/11/22 04:21:32;;;;;;;6.00;4.00;;;;;;;-1.30;84.77;97876.33;101824;1304;61125;-21
2022/11/22 04:22:31;;;;;;;7.40;4.20;;;;;;;-1.53;85.89;97886.67;101895;1300;75005;-21
2022/11/22 04:25:14;;;;;;;6.30;4.00;;;;;;;-1.68;86.63;97885.67;102196;1292;76215;-21
2022/11/22 04:27:42;;;;;;;10.70;4.50;;;;;;;-1.02;86.24;97890.37;101246;1303;1185183;-22
2022/11/22 04:30:10;;;;;;;8.60;4.90;;;;;;;-0.48;84.05;97892.09;102173;1302;62900;-21
2022/11/22 04:32:46;;;;;;;9.50;4.90;;;;;;;-0.52;83.25;97888.39;101830;1299;61508;-21
2022/11/22 04:35:14;;;;;;;8.50;5.20;;;;;;;-0.69;83.33;97890.52;101927;1299;76118;-21
2022/11/22 04:37:48;;;;;;;8.60;5.00;;;;;;;-0.94;84.04;97888.59;102230;1302;74651;-21
2022/11/22 04:40:16;;;;;;;10.50;5.10;;;;;;;-1.18;84.85;97891.53;101885;1303;75128;-21
2022/11/22 04:45:31;;;;;;;9.30;5.00;;;;;;;-1.26;86.01;97903.15;102109;1298;61850;-22
2022/11/22 04:47:59;;;;;;;6.40;3.40;;;;;;;-0.53;84.70;97906.19;101930;1302;75421;-22
2022/11/22 04:53:14;;;;;;;6.90;4.10;;;;;;;-0.51;82.75;97904.02;102041;1295;75223;-22
2022/11/22 04:55:43;;;;;;;7.80;4.40;;;;;;;-0.79;83.41;97903.33;101901;1298;61820;-22
2022/11/22 04:58:11;;;;;;;6.20;3.80;;;;;;;-1.08;84.66;97902.27;101920;1291;61855;-22
2022/11/22 05:00:38;;;;;;;7.30;4.50;;;;;;;-1.56;86.75;97898.40;102057;1300;76383;-22
2022/11/22 05:03:06;;;;;;;7.70;4.30;;;;;;;-1.53;87.61;97900.62;102085;1302;76670;-21
2022/11/22 05:05:38;;;;;;;8.20;4.80;;;;;;;-0.93;85.59;97899.63;102131;1301;73377;-22
2022/11/22 05:08:06;;;;;;;5.60;2.50;;;;;;;-1.03;85.04;97906.46;102009;1297;61156;-21
2022/11/22 05:13:41;;;;;;;5.20;3.00;;;;;;;-1.42;86.01;97922.55;102192;1298;76362;-21
2022/11/22 05:16:11;;;;;;;5.00;3.40;;;;;;;-1.38;86.36;97926.44;102081;1302;76728;-21
2022/11/22 05:18:39;;;;;;;5.40;3.60;;;;;;;-1.11;85.75;97931.39;102019;1299;72919;-21
2022/11/22 05:21:08;;;;;;;5.80;3.70;;;;;;;-0.75;84.57;97936.83;101807;1300;62935;-22
2022/11/22 05:23:53;;;;;;;5.80;3.60;;;;;;;-0.52;83.32;97939.89;101944;1297;61544;-21
2022/11/22 05:26:25;;;;;;;6.20;3.80;;;;;;;-0.65;83.05;97937.83;102035;1302;76045;-21
2022/11/22 05:28:52;;;;;;;6.90;3.70;;;;;;;-0.85;83.26;97937.55;101905;1303;76531;-21
2022/11/22 05:31:22;;;;;;;5.40;3.00;;;;;;;-1.04;84.01;97932.54;102036;1301;73955;-22
2022/11/22 05:33:50;;;;;;;6.40;3.30;;;;;;;-1.10;84.65;97929.11;101991;1299;62653;-21
2022/11/22 05:36:20;;;;;;;5.30;3.10;;;;;;;-0.55;83.70;97933.23;102090;1304;62677;-22
2022/11/22 05:38:48;;;;;;;8.10;3.60;;;;;;;-0.22;82.30;97938.29;101953;1304;76490;-22
2022/11/22 05:41:16;;;;;;;5.70;3.30;;;;;;;-0.25;81.69;97943.92;101921;1296;76824;-21
2022/11/22 05:43:44;;;;;;;7.40;3.80;;;;;;;-0.49;82.30;97946.08;102287;1301;73353;-22
2022/11/22 05:46:13;;;;;;;6.50;3.70;;;;;;;-0.83;83.20;97944.77;102085;1304;61954;-21
2022/11/22 05:48:45;;;;;;;;;;;;;;;-1.04;84.11;97946.70;102293;1284;62189;-21
2022/11/22 05:51:14;;;;;;;5.10;3.10;;;;;;;-1.10;84.92;97949.08;102231;1295;75402;-21
2022/11/22 05:53:42;;;;;;;6.90;3.10;;;;;;;-0.69;83.92;97947.77;101898;1300;75864;-21
2022/11/22 05:56:11;;;;;;;8.10;3.40;;;;;;;-0.26;82.16;97957.77;101826;1297;75702;-22
2022/11/22 05:58:39;;;;;;;6.80;3.00;;;;;;;-0.21;81.64;97956.13;101910;1297;62247;-22
2022/11/22 06:01:12;;;;;;;10.80;5.10;;;;;;;-0.45;81.98;97946.02;101971;1298;61737;-21
2022/11/22 06:03:40;;;;;;;6.20;3.20;;;;;;;-0.59;82.53;97943.85;101963;1301;76346;-22
2022/11/22 06:06:07;;;;;;;7.40;4.00;;;;;;;-0.72;82.99;97945.03;102327;1298;76752;-22
2022/11/22 06:08:37;;;;;;;6.40;3.20;;;;;;;-0.81;83.72;97952.45;102160;1300;74218;-21
2022/11/22 06:11:12;;;;;;;6.40;3.50;;;;;;;-0.40;83.18;97950.34;101864;1305;61444;-24
2022/11/22 06:13:41;;;;;;;5.40;3.20;;;;;;;0.13;80.92;97953.41;101950;1299;61525;-22
2022/11/22 06:16:08;;;;;;;5.30;3.30;;;;;;;0.12;80.26;97957.71;102084;1301;74918;-21
2022/11/22 06:18:38;;;;;;;7.70;4.10;;;;;;;-0.12;80.96;97962.48;102119;1299;76659;-21
2022/11/22 06:21:08;;;;;;;6.00;3.90;;;;;;;-0.29;81.83;97973.45;102357;1292;75112;-21
2022/11/22 06:23:36;;;;;;;12.60;4.10;;;;;;;-0.48;82.53;97981.63;101921;1304;61296;-21
2022/11/22 06:26:08;;;;;;;5.50;3.90;;;;;;;-0.60;83.43;97983.46;102034;1295;62668;-21
2022/11/22 06:28:36;;;;;;;8.90;4.10;;;;;;;-0.34;83.22;97988.37;102132;1301;75459;-21
2022/11/22 06:31:11;;;;;;;7.60;3.70;;;;;;;-0.04;82.15;97987.48;101917;1297;77191;-21
2022/11/22 06:33:39;;;;;;;14.30;5.90;;;;;;;-0.12;81.98;97992.33;101996;1304;75358;-21
2022/11/22 06:36:08;;;;;;;7.50;4.00;;;;;;;-0.29;82.72;97989.13;102346;1301;61338;-21
2022/11/22 06:38:38;;;;;;;7.30;4.00;;;;;;;-0.51;83.84;97993.54;102208;1299;61528;-21
2022/11/22 06:41:08;;;;;;;8.60;4.70;;;;;;;-0.61;84.55;98001.92;101995;1302;76061;-21
2022/11/22 06:43:36;;;;;;;8.40;4.30;;;;;;;-0.67;85.18;98005.31;101941;1306;75600;-21
2022/11/22 06:46:07;;;;;;;9.50;4.00;;;;;;;-0.18;84.17;98007.86;102044;1292;75489;-21
2022/11/22 06:48:36;;;;;;;10.90;5.60;;;;;;;-0.12;83.06;98009.54;102214;1301;62894;-21
2022/11/22 06:51:11;;;;;;;10.20;5.50;;;;;;;-0.12;83.25;98007.38;101912;1288;62570;-21
2022/11/22 06:53:38;;;;;;;12.00;6.50;;;;;;;-0.52;84.48;98002.30;102144;1299;74186;-21
2022/11/22 06:56:18;;;;;;;10.70;5.00;;;;;;;-0.77;85.87;97999.67;102070;1300;76570;-21
2022/11/22 06:58:47;;;;;;;6.60;3.30;;;;;;;-1.00;87.28;97998.81;101878;1304;75217;-22
2022/11/22 07:01:19;;;;;;;8.10;5.20;;;;;;;-0.45;86.01;97996.66;102079;1299;61843;-21
2022/11/22 07:03:47;;;;;;;7.10;4.00;;;;;;;-0.12;84.05;98003.59;102056;1295;62635;-21
2022/11/22 07:06:16;;;;;;;11.10;6.60;;;;;;;-0.11;83.14;98002.88;101995;1300;76113;-21
2022/11/22 07:08:44;;;;;;;8.50;4.70;;;;;;;-0.34;83.65;98004.80;101872;1306;76735;-21
2022/11/22 07:11:14;;;;;;;9.00;3.80;;;;;;;-0.41;83.98;98001.56;101832;1298;73974;-21
2022/11/22 07:13:42;;;;;;;7.80;4.80;;;;;;;-0.76;84.83;97998.77;102055;1298;61136;-21
2022/11/22 07:16:16;;;;;;;11.90;6.00;;;;;;;-0.58;85.21;97996.66;102163;1291;62648;-21
2022/11/22 07:18:46;;;;;;;7.20;4.60;;;;;;;-0.12;83.80;97996.79;101974;1294;76270;-21
2022/11/22 07:21:16;;;;;;;12.30;3.90;;;;;;;0.34;81.66;98000.73;102007;1303;75603;-21
2022/11/22 07:23:45;;;;;;;9.50;5.30;;;;;;;0.27;81.15;98004.35;102076;1303;75505;-21
2022/11/22 07:26:13;;;;;;;6.40;3.10;;;;;;;0.16;81.24;98003.25;101922;1304;61221;-21
2022/11/22 07:28:42;;;;;;;9.30;5.10;;;;;;;-0.08;81.96;98000.47;101927;1299;61843;-21
2022/11/22 07:31:11;;;;;;;6.90;4.10;;;;;;;-0.17;82.57;97994.48;101973;1297;76411;-21
2022/11/22 07:33:40;;;;;;;7.80;4.60;;;;;;;-0.11;82.78;97990.73;101867;1298;76680;-22
2022/11/22 07:36:10;;;;;;;12.00;5.00;;;;;;;0.18;82.17;97988.11;101856;1298;74131;-22
2022/11/22 07:38:41;;;;;;;;;;;;;;;0.42;81.08;97986.45;101926;1302;61732;-22
2022/11/22 07:41:09;;;;;;;7.50;4.20;;;;;;;0.26;81.04;97977.95;101983;1302;62420;-22
2022/11/22 07:43:36;;;;;;;9.00;5.50;;;;;;;-0.19;82.65;97981.41;102200;1299;76371;-22
2022/11/22 07:46:06;;;;;;;8.70;5.10;;;;;;;-0.61;84.71;97978.88;102232;1294;76658;-22
2022/11/22 07:48:34;;;;;;;9.80;5.30;;;;;;;-0.45;84.65;97973.11;101981;1295;75629;-22
2022/11/22 07:51:06;;;;;;;10.90;5.70;;;;;;;-0.05;83.29;97974.55;102026;1294;61245;-22
2022/11/22 07:53:33;;;;;;;10.40;5.30;;;;;;;0.22;81.67;97972.89;102138;1301;62943;-22
2022/11/22 07:56:03;;;;;;;9.50;5.50;;;;;;;0.18;81.35;97975.52;102065;1298;74322;-22
2022/11/22 07:58:32;;;;;;;9.80;4.50;;;;;;;-0.12;82.34;97975.41;101998;1299;75508;-22
2022/11/22 08:01:05;;;;;;;12.50;6.20;;;;;;;-0.17;82.77;97983.37;102061;1301;75045;-22
2022/11/22 08:03:33;;;;;;;8.60;4.80;;;;;;;-0.41;83.61;97976.66;101989;1299;61790;-22
2022/11/22 08:06:01;;;;;;;12.90;5.40;;;;;;;-0.23;83.74;97981.46;102334;1299;61508;-22
2022/11/22 08:08:28;;;;;;;12.20;6.10;;;;;;;0.37;81.43;97981.44;102258;1298;76247;-22
2022/11/22 08:10:56;;;;;;;10.90;6.10;;;;;;;0.28;80.90;97980.23;102176;1298;76788;-22
2022/11/22 08:13:24;;;;;;;9.70;5.20;;;;;;;0.26;80.73;97981.73;102040;1302;75490;-22
2022/11/22 08:15:52;;;;;;;11.70;6.30;;;;;;;0.24;81.00;97986.43;102129;1300;62143;-22
2022/11/22 08:18:21;;;;;;;14.40;6.60;;;;;;;-0.09;82.17;97987.58;102300;1301;63085;-22
2022/11/22 08:20:50;;;;;;;10.60;5.50;;;;;;;-0.13;82.69;97989.98;101882;1303;76055;-21
2022/11/22 08:23:17;;;;;;;12.30;6.40;;;;;;;-0.01;82.40;97996.48;102176;1301;76633;-21
2022/11/22 08:25:45;;;;;;;7.20;4.10;;;;;;;0.65;80.66;97997.30;102111;1293;73206;-21
2022/11/22 08:28:12;;;;;;;11.70;5.90;;;;;;;0.70;79.59;97996.30;101918;1301;61139;-21
2022/11/22 08:30:40;;;;;;;13.80;6.90;;;;;;;0.58;79.44;97997.84;101951;1301;63056;-21
2022/11/22 08:33:07;;;;;;;10.50;4.80;;;;;;;0.25;80.40;97996.09;101999;1300;76427;-22
2022/11/22 08:35:35;;;;;;;13.60;6.20;;;;;;;0.20;80.83;97995.21;102092;1301;76748;-21
2022/11/22 08:38:03;;;;;;;9.10;4.70;;;;;;;0.08;81.30;97991.77;102062;1296;75140;-22
2022/11/22 08:40:30;;;;;;;6.40;3.70;;;;;;;-0.04;81.85;97990.36;102139;1301;63411;-22
2022/11/22 08:43:04;;;;;;;13.10;7.30;;;;;;;0.47;80.69;97988.39;102223;1300;62876;-22
2022/11/22 08:45:33;;;;;;;12.60;6.20;;;;;;;0.74;79.17;97987.20;102209;1301;74475;-22
2022/11/22 08:48:00;;;;;;;12.10;6.40;;;;;;;0.91;78.45;97985.70;102126;1301;76874;-22
2022/11/22 08:50:28;;;;;;;13.80;7.20;;;;;;;0.82;78.38;97992.38;102034;1301;74926;-22
2022/11/22 08:52:55;;;;;;;11.30;6.00;;;;;;;0.67;78.63;97997.34;101960;1287;62126;-21
2022/11/22 08:55:23;;;;;;;11.90;6.30;;;;;;;0.51;78.68;98003.02;102169;1296;62827;-21
2022/11/22 08:57:50;;;;;;;13.10;6.90;;;;;;;0.37;79.41;98001.44;102261;1300;76276;-22
2022/11/22 09:00:18;;;;;;;16.70;5.80;;;;;;;0.14;80.22;97999.45;102099;1294;77152;-22
2022/11/22 09:02:46;;;;;;;10.90;5.60;;;;;;;0.29;79.97;98000.61;102361;1301;75080;-22
2022/11/22 09:05:15;;;;;;;8.90;4.40;;;;;;;0.75;78.66;98001.48;102019;1295;61701;-22
2022/11/22 09:07:43;;;;;;;10.20;6.10;;;;;;;0.77;78.08;98008.92;102062;1297;61965;-22
2022/11/22 09:10:31;;;;;;;12.30;7.00;;;;;;;0.65;78.33;98009.56;102164;1300;76192;-22
2022/11/22 09:12:58;;;;;;;10.00;5.60;;;;;;;0.25;79.33;98003.98;102310;1299;75913;-22
2022/11/22 09:15:27;;;;;;;9.90;5.70;;;;;;;0.08;79.95;98004.20;102087;1295;74004;-22
2022/11/22 09:18:02;;;;;;;8.20;4.50;;;;;;;-0.07;80.94;98011.54;101898;1293;61203;-22
2022/11/22 09:20:32;;;;;;;9.40;5.70;;;;;;;0.19;80.66;98012.16;101977;1303;62750;-22
2022/11/22 09:23:01;;;;;;;9.70;6.10;;;;;;;0.63;78.99;98014.61;101898;1297;76346;-22
2022/11/22 09:25:30;;;;;;;12.70;7.30;;;;;;;0.67;78.45;98009.79;101889;1298;77133;-22
2022/11/22 09:28:02;;;;;;;13.00;6.70;;;;;;;0.32;79.66;98016.55;102234;1301;75399;-22
2022/11/22 09:30:29;;;;;;;8.40;4.30;;;;;;;0.23;80.09;98023.02;102193;1294;61070;-22
2022/11/22 09:32:57;;;;;;;8.70;5.30;;;;;;;0.05;80.67;98019.20;102136;1291;62831;-23
2022/11/22 09:35:24;;;;;;;12.20;6.70;;;;;;;-0.13;81.73;98022.42;102078;1301;74348;-23
2022/11/22 09:37:52;;;;;;;11.50;5.70;;;;;;;-0.04;82.00;98027.02;102237;1294;75701;-23
2022/11/22 09:40:19;;;;;;;13.60;5.70;;;;;;;0.57;80.16;98025.23;102062;1302;74037;-22
2022/11/22 09:43:00;;;;;;;12.70;6.30;;;;;;;0.44;79.11;98026.29;102214;1292;62749;-22
2022/11/22 09:45:37;;;;;;;10.60;7.30;;;;;;;0.29;80.25;98026.60;102080;1298;62824;-23
2022/11/22 09:48:30;;;;;;;17.20;9.00;;;;;;;-0.09;81.98;98025.78;101937;1299;75058;-22
2022/11/22 09:51:03;;;;;;;11.00;6.60;;;;;;;-0.26;82.94;98029.40;102226;1301;76286;-22
2022/11/22 09:53:43;;;;;;;11.30;6.10;;;;;;;-0.35;83.32;98019.81;101932;1304;74351;-22
2022/11/22 09:56:12;;;;;;;8.90;5.10;;;;;;;0.05;82.07;98019.05;101996;1294;61578;-23
2022/11/22 09:58:52;;;;;;;6.30;4.20;;;;;;;0.71;79.98;98018.49;101863;1298;63201;-23
2022/11/22 10:01:26;;;;;;;13.30;8.20;;;;;;;0.88;78.83;98016.77;102130;1299;75391;-22
2022/11/22 10:04:10;;;;;;;16.00;8.40;;;;;;;0.59;79.44;98022.92;102063;1302;76486;-22
2022/11/22 10:06:40;;;;;;;15.90;8.50;;;;;;;0.27;81.03;98019.41;102095;1302;75118;-22
2022/11/22 10:09:40;;;;;;;16.70;9.00;;;;;;;0.18;81.21;98020.38;101952;1302;62023;-22
2022/11/22 10:12:20;;;;;;;13.80;8.10;;;;;;;-0.25;82.50;98019.46;102210;1300;62620;-22
2022/11/22 10:15:04;;;;;;;15.10;8.80;;;;;;;-0.30;83.69;98025.02;101948;1295;76121;-23
2022/11/22 10:17:50;;;;;;;14.40;8.80;;;;;;;0.00;83.59;98037.41;101938;1298;76345;-23
2022/11/22 10:20:23;;;;;;;12.50;6.90;;;;;;;0.43;81.02;98036.09;101975;1298;73151;-23
2022/11/22 10:22:51;;;;;;;17.00;8.40;;;;;;;0.25;80.97;98037.60;101863;1290;61295;-23
2022/11/22 10:25:19;;;;;;;18.20;7.60;;;;;;;0.15;81.18;98038.32;101940;1298;61250;-23
2022/11/22 10:27:55;;;;;;;17.70;9.20;;;;;;;-0.08;82.46;98039.73;102298;1298;76360;-22
2022/11/22 10:30:34;;;;;;;13.00;7.10;;;;;;;-0.14;82.96;98046.05;102321;1298;75510;-22
2022/11/22 10:33:19;;;;;;;14.40;6.60;;;;;;;0.21;81.87;98045.87;101991;1296;75309;-22
2022/11/22 10:35:56;;;;;;;15.40;7.50;;;;;;;0.63;79.93;98051.87;102239;1294;63090;-22
2022/11/22 10:38:48;;;;;;;12.20;6.30;;;;;;;0.57;79.05;98052.20;102111;1295;61672;-22
2022/11/22 10:41:32;;;;;;;13.90;7.70;;;;;;;0.44;79.48;98053.27;101932;1304;76385;-22
2022/11/22 10:44:19;;;;;;;16.00;7.10;;;;;;;0.47;78.97;98052.96;102117;1294;77310;-22
2022/11/22 10:47:10;;;;;;;9.60;5.80;;;;;;;0.42;79.23;98051.87;102207;1294;74172;-21
2022/11/22 10:49:40;;;;;;;9.50;5.40;;;;;;;0.04;80.16;98044.17;101905;1304;63445;-21
2022/11/22 10:52:17;;;;;;;13.20;6.70;;;;;;;0.44;79.17;98051.25;101939;1298;61124;-22
2022/11/22 10:54:54;;;;;;;12.40;6.30;;;;;;;0.77;78.02;98056.73;101907;1304;75330;-21
2022/11/22 10:57:43;;;;;;;11.50;6.20;;;;;;;0.97;77.10;98053.70;101906;1297;75823;-21
2022/11/22 11:00:20;;;;;;;12.80;6.10;;;;;;;0.83;77.11;98056.06;102029;1304;75242;-21
2022/11/22 11:03:00;;;;;;;13.40;6.80;;;;;;;0.61;77.47;98053.35;102130;1301;62002;-22
2022/11/22 11:05:41;;;;;;;11.80;6.20;;;;;;;0.43;78.23;98053.48;102083;1296;62443;-21
2022/11/22 11:08:56;;;;;;;11.10;6.30;;;;;;;0.18;79.22;98054.89;102127;1298;74433;-21
2022/11/22 11:11:44;;;;;;;7.80;4.60;;;;;;;0.43;79.50;98055.90;102068;1304;76851;-21
2022/11/22 11:14:36;;;;;;;9.30;5.40;;;;;;;1.06;76.65;98051.29;102063;1301;74180;-21
2022/11/22 11:17:05;;;;;;;7.30;4.10;;;;;;;1.16;74.87;98048.49;102076;1301;62819;-21
2022/11/22 11:19:37;;;;;;;8.50;4.60;;;;;;;1.05;75.24;98049.33;102147;1301;61801;-22
2022/11/22 11:22:07;;;;;;;11.00;5.90;;;;;;;0.83;75.73;98045.45;101901;1302;76237;-21
2022/11/22 11:24:37;;;;;;;10.80;5.90;;;;;;;0.50;76.69;98040.13;102086;1301;76533;-21
2022/11/22 11:27:05;;;;;;;10.50;6.00;;;;;;;0.27;77.82;98044.65;101918;1302;74212;-21
2022/11/22 11:29:36;;;;;;;9.00;4.90;;;;;;;0.05;78.55;98043.44;102163;1300;62007;-21
2022/11/22 11:32:25;;;;;;;7.20;4.70;;;;;;;0.22;78.52;98051.24;101991;1301;61817;-21
2022/11/22 11:34:57;;;;;;;8.10;5.00;;;;;;;0.73;76.65;98052.35;102268;1302;75697;-21
2022/11/22 11:37:45;;;;;;;10.20;6.10;;;;;;;0.72;75.68;98050.52;101851;1300;76908;-21
2022/11/22 11:40:29;;;;;;;8.40;5.20;;;;;;;0.58;76.05;98064.48;102072;1301;75366;-21
2022/11/22 11:43:22;;;;;;;8.00;5.40;;;;;;;0.37;76.93;98074.36;101976;1295;61635;-21
2022/11/22 11:45:49;;;;;;;8.80;5.00;;;;;;;0.18;77.36;98073.80;101920;1297;62005;-20
2022/11/22 11:48:44;;;;;;;10.90;4.10;;;;;;;-0.02;78.03;98073.36;102017;1301;76227;-20
2022/11/22 11:51:28;;;;;;;6.30;3.90;;;;;;;0.20;78.33;98074.70;101918;1298;76691;-21
2022/11/22 11:53:57;;;;;;;;;;;;;;;0.84;76.42;98076.68;102203;1294;75489;-21
2022/11/22 11:56:37;;;;;;;5.40;3.30;;;;;;;0.97;75.27;98075.10;102256;1301;61400;-21